createdAt,value
2023-03-08T00:00:43.245Z,924.47
2023-03-08T00:01:43.444Z,924.45
2023-03-08T00:02:44.109Z,924.52
2023-03-08T00:03:44.664Z,924.5
2023-03-08T00:04:44.976Z,924.45
2023-03-08T00:05:45.575Z,924.49
2023-03-08T00:06:46.069Z,924.49
2023-03-08T00:07:46.687Z,924.49
2023-03-08T00:08:47.030Z,924.52
2023-03-08T00:09:47.556Z,924.51
2023-03-08T00:10:47.807Z,924.46
2023-03-08T00:11:48.776Z,924.5
2023-03-08T00:12:49.716Z,924.52
2023-03-08T00:13:50.050Z,924.52
2023-03-08T00:14:50.764Z,924.52
2023-03-08T00:15:51.286Z,924.57
2023-03-08T00:16:52.364Z,924.59
2023-03-08T00:17:53.290Z,924.55
2023-03-08T00:18:54.209Z,924.59
2023-03-08T00:19:55.297Z,924.65
2023-03-08T00:20:55.514Z,924.61
2023-03-08T00:21:56.448Z,924.62
2023-03-08T00:22:56.653Z,924.7
2023-03-08T00:23:57.077Z,924.64
2023-03-08T00:24:57.565Z,924.67
2023-03-08T00:25:58.271Z,924.59
2023-03-08T00:26:58.518Z,924.59
2023-03-08T00:27:59.163Z,924.58
2023-03-08T00:28:59.663Z,924.55
2023-03-08T00:30:00.596Z,924.54
2023-03-08T00:31:01.276Z,924.51
2023-03-08T00:32:01.843Z,924.52
2023-03-08T00:33:02.596Z,924.52
2023-03-08T00:34:03.232Z,924.48
2023-03-08T00:35:03.472Z,924.46
2023-03-08T00:36:04.048Z,924.43
2023-03-08T00:37:04.680Z,924.42
2023-03-08T00:38:04.888Z,924.32
2023-03-08T00:39:05.229Z,924.37
2023-03-08T00:40:06.151Z,924.33
2023-03-08T00:41:06.409Z,924.32
2023-03-08T00:42:06.622Z,924.36
2023-03-08T00:43:07.102Z,924.34
2023-03-08T00:44:08.110Z,924.38
2023-03-08T00:45:08.484Z,924.4
2023-03-08T00:46:08.906Z,924.37
2023-03-08T00:47:09.380Z,924.38
2023-03-08T00:48:09.862Z,924.43
2023-03-08T00:49:10.105Z,924.36
2023-03-08T00:50:11.208Z,924.34
2023-03-08T00:51:11.894Z,924.32
2023-03-08T00:52:12.116Z,924.33
2023-03-08T00:53:12.334Z,924.34
2023-03-08T00:54:12.988Z,924.36
2023-03-08T00:55:13.917Z,924.39
2023-03-08T00:56:14.153Z,924.28
2023-03-08T00:57:15.084Z,924.31
2023-03-08T00:58:15.291Z,924.32
2023-03-08T00:59:15.496Z,924.26
2023-03-08T01:00:16.410Z,924.26
2023-03-08T01:01:17.569Z,924.17
2023-03-08T01:02:17.913Z,924.19
2023-03-08T01:03:18.117Z,924.18
2023-03-08T01:04:18.533Z,924.18
2023-03-08T01:05:19.210Z,924.2
2023-03-08T01:06:19.412Z,924.21
2023-03-08T01:07:20.059Z,924.21
2023-03-08T01:08:21.009Z,924.21
2023-03-08T01:09:22.033Z,924.23
2023-03-08T01:10:22.673Z,924.18
2023-03-08T01:11:23.665Z,924.19
2023-03-08T01:12:24.324Z,924.21
2023-03-08T01:13:24.531Z,924.2
2023-03-08T01:14:24.880Z,924.16
2023-03-08T01:15:25.456Z,924.11
2023-03-08T01:16:26.413Z,924.12
2023-03-08T01:17:27.328Z,924.09
2023-03-08T01:18:27.534Z,924.04
2023-03-08T01:19:28.466Z,924.14
2023-03-08T01:20:29.421Z,924.04
2023-03-08T01:21:30.347Z,923.98
2023-03-08T01:22:31.292Z,923.97
2023-03-08T01:23:31.527Z,923.97
2023-03-08T01:24:32.578Z,923.9
2023-03-08T01:25:33.496Z,923.9
2023-03-08T01:26:33.824Z,923.92
2023-03-08T01:27:34.782Z,923.99
2023-03-08T01:28:35.019Z,923.94
2023-03-08T01:29:35.508Z,923.94
2023-03-08T01:30:35.727Z,923.95
2023-03-08T01:31:36.229Z,923.96
2023-03-08T01:32:36.744Z,924.02
2023-03-08T01:33:37.785Z,924.05
2023-03-08T01:34:38.575Z,924.1
2023-03-08T01:35:39.131Z,924.12
2023-03-08T01:36:39.564Z,924.18
2023-03-08T01:37:40.489Z,924.1
2023-03-08T01:38:41.422Z,924.12
2023-03-08T01:39:41.966Z,924.05
2023-03-08T01:40:42.907Z,924.03
2023-03-08T01:41:43.199Z,924.05
2023-03-08T01:42:43.855Z,924.08
2023-03-08T01:43:44.768Z,924.03
2023-03-08T01:44:45.768Z,923.97
2023-03-08T01:45:45.977Z,923.96
2023-03-08T01:46:46.949Z,923.98
2023-03-08T01:47:47.866Z,923.88
2023-03-08T01:48:48.514Z,923.91
2023-03-08T01:49:48.761Z,923.85
2023-03-08T01:50:49.136Z,923.87
2023-03-08T01:51:49.357Z,923.9
2023-03-08T01:52:50.273Z,923.95
2023-03-08T01:53:50.486Z,923.93
2023-03-08T01:54:50.858Z,923.96
2023-03-08T01:55:51.090Z,923.98
2023-03-08T01:56:51.762Z,923.99
2023-03-08T01:57:51.975Z,923.99
2023-03-08T01:58:52.908Z,924.01
2023-03-08T01:59:53.108Z,923.99
2023-03-08T02:00:53.404Z,923.91
2023-03-08T02:01:53.525Z,923.92
2023-03-08T02:02:54.456Z,923.92
2023-03-08T02:03:55.121Z,923.92
2023-03-08T02:04:55.851Z,923.88
2023-03-08T02:05:56.073Z,923.85
2023-03-08T02:06:56.704Z,923.8
2023-03-08T02:07:56.914Z,923.76
2023-03-08T02:08:57.135Z,923.79
2023-03-08T02:09:58.118Z,923.82
2023-03-08T02:10:58.779Z,923.76
2023-03-08T02:11:59.735Z,923.74
2023-03-08T02:12:59.947Z,923.68
2023-03-08T02:14:00.605Z,923.64
2023-03-08T02:15:00.961Z,923.62
2023-03-08T02:16:01.616Z,923.55
2023-03-08T02:17:02.542Z,923.56
2023-03-08T02:18:03.039Z,923.55
2023-03-08T02:19:03.971Z,923.54
2023-03-08T02:20:04.207Z,923.56
2023-03-08T02:21:05.155Z,923.52
2023-03-08T02:22:06.150Z,923.58
2023-03-08T02:23:06.354Z,923.51
2023-03-08T02:24:06.575Z,923.49
2023-03-08T02:25:07.220Z,923.45
2023-03-08T02:26:08.120Z,923.51
2023-03-08T02:27:08.409Z,923.48
2023-03-08T02:28:09.330Z,923.48
2023-03-08T02:29:09.969Z,923.48
2023-03-08T02:30:10.885Z,923.45
2023-03-08T02:31:11.092Z,923.45
2023-03-08T02:32:12.086Z,923.45
2023-03-08T02:33:12.422Z,923.41
2023-03-08T02:34:13.086Z,923.37
2023-03-08T02:35:13.422Z,923.34
2023-03-08T02:36:14.366Z,923.32
2023-03-08T02:37:15.017Z,923.29
2023-03-08T02:38:15.950Z,923.23
2023-03-08T02:39:16.624Z,923.28
2023-03-08T02:40:17.246Z,923.29
2023-03-08T02:41:17.875Z,923.26
2023-03-08T02:42:18.424Z,923.2
2023-03-08T02:43:19.353Z,923.22
2023-03-08T02:44:20.286Z,923.27
2023-03-08T02:45:21.004Z,923.22
2023-03-08T02:46:21.204Z,923.24
2023-03-08T02:47:21.834Z,923.19
2023-03-08T02:48:22.457Z,923.16
2023-03-08T02:49:22.695Z,923.12
2023-03-08T02:50:22.990Z,923.05
2023-03-08T02:51:23.513Z,923
2023-03-08T02:52:24.423Z,922.98
2023-03-08T02:53:25.346Z,923.03
2023-03-08T02:54:25.549Z,923.02
2023-03-08T02:55:25.940Z,923.03
2023-03-08T02:56:26.141Z,923.01
2023-03-08T02:57:26.694Z,922.96
2023-03-08T02:58:27.352Z,922.88
2023-03-08T02:59:27.988Z,922.93
2023-03-08T03:00:28.928Z,922.9
2023-03-08T03:01:29.188Z,922.9
2023-03-08T03:02:29.433Z,922.93
2023-03-08T03:03:29.650Z,922.98
2023-03-08T03:04:30.347Z,922.91
2023-03-08T03:05:31.419Z,922.91
2023-03-08T03:06:32.378Z,922.9
2023-03-08T03:07:32.702Z,922.89
2023-03-08T03:08:33.618Z,922.87
2023-03-08T03:09:34.563Z,922.9
2023-03-08T03:10:34.814Z,922.89
2023-03-08T03:11:35.299Z,922.92
2023-03-08T03:12:35.538Z,922.91
2023-03-08T03:13:35.749Z,922.9
2023-03-08T03:14:36.686Z,922.9
2023-03-08T03:15:37.563Z,922.89
2023-03-08T03:16:38.517Z,922.92
2023-03-08T03:17:38.714Z,922.91
2023-03-08T03:18:38.931Z,922.94
2023-03-08T03:19:39.859Z,922.96
2023-03-08T03:20:40.483Z,922.94
2023-03-08T03:21:41.200Z,922.98
2023-03-08T03:22:41.424Z,922.98
2023-03-08T03:23:41.942Z,922.93
2023-03-08T03:24:42.569Z,922.98
2023-03-08T03:25:43.192Z,923.01
2023-03-08T03:26:44.120Z,923.03
2023-03-08T03:27:44.674Z,923.05
2023-03-08T03:28:45.318Z,923.08
2023-03-08T03:29:46.251Z,923.05
2023-03-08T03:30:46.533Z,923.06
2023-03-08T03:31:46.652Z,923.09
2023-03-08T03:32:47.351Z,923.09
2023-03-08T03:33:48.061Z,923.07
2023-03-08T03:34:48.483Z,923.08
2023-03-08T03:35:48.988Z,923.03
2023-03-08T03:36:49.493Z,922.98
2023-03-08T03:37:49.980Z,922.98
2023-03-08T03:38:50.615Z,923.05
2023-03-08T03:39:51.546Z,923.01
2023-03-08T03:40:52.105Z,922.98
2023-03-08T03:41:52.774Z,922.97
2023-03-08T03:42:53.361Z,922.96
2023-03-08T03:43:54.288Z,922.95
2023-03-08T03:44:54.565Z,922.99
2023-03-08T03:45:55.567Z,923
2023-03-08T03:46:55.902Z,922.99
2023-03-08T03:47:56.095Z,922.93
2023-03-08T03:48:57.045Z,922.92
2023-03-08T03:49:57.678Z,922.91
2023-03-08T03:50:58.590Z,922.89
2023-03-08T03:51:59.516Z,922.9
2023-03-08T03:53:00.474Z,922.91
2023-03-08T03:54:00.724Z,922.89
2023-03-08T03:55:01.192Z,922.87
2023-03-08T03:56:01.643Z,922.82
2023-03-08T03:57:01.893Z,922.8
2023-03-08T03:58:02.194Z,922.82
2023-03-08T03:59:03.121Z,922.81
2023-03-08T04:00:03.783Z,922.82
2023-03-08T04:01:04.748Z,922.79
2023-03-08T04:02:04.961Z,922.82
2023-03-08T04:03:05.618Z,922.76
2023-03-08T04:04:06.063Z,922.82
2023-03-08T04:05:06.591Z,922.79
2023-03-08T04:06:06.741Z,922.8
2023-03-08T04:07:07.826Z,922.77
2023-03-08T04:08:08.323Z,922.8
2023-03-08T04:09:08.828Z,922.8
2023-03-08T04:10:09.469Z,922.78
2023-03-08T04:11:09.956Z,922.77
2023-03-08T04:12:10.061Z,922.78
2023-03-08T04:13:10.585Z,922.7
2023-03-08T04:14:11.072Z,922.71
2023-03-08T04:15:11.344Z,922.63
2023-03-08T04:16:11.669Z,922.66
2023-03-08T04:17:11.935Z,922.63
2023-03-08T04:18:12.574Z,922.65
2023-03-08T04:19:13.067Z,922.63
2023-03-08T04:20:13.994Z,922.6
2023-03-08T04:21:14.240Z,922.6
2023-03-08T04:22:14.457Z,922.54
2023-03-08T04:23:15.352Z,922.56
2023-03-08T04:24:15.562Z,922.52
2023-03-08T04:25:15.781Z,922.49
2023-03-08T04:26:16.825Z,922.47
2023-03-08T04:27:17.083Z,922.43
2023-03-08T04:28:17.359Z,922.42
2023-03-08T04:29:17.853Z,922.37
2023-03-08T04:30:18.530Z,922.36
2023-03-08T04:31:19.174Z,922.41
2023-03-08T04:32:19.398Z,922.36
2023-03-08T04:33:19.855Z,922.31
2023-03-08T04:34:20.055Z,922.33
2023-03-08T04:35:20.979Z,922.22
2023-03-08T04:36:21.494Z,922.22
2023-03-08T04:37:22.429Z,922.19
2023-03-08T04:38:23.363Z,922.17
2023-03-08T04:39:23.564Z,922.16
2023-03-08T04:40:24.198Z,922.15
2023-03-08T04:41:24.880Z,922.18
2023-03-08T04:42:25.519Z,922.17
2023-03-08T04:43:26.038Z,922.16
2023-03-08T04:44:26.974Z,922.15
2023-03-08T04:45:27.180Z,922.16
2023-03-08T04:46:27.414Z,922.11
2023-03-08T04:47:27.642Z,922.1
2023-03-08T04:48:28.560Z,922.06
2023-03-08T04:49:29.081Z,922.05
2023-03-08T04:50:29.993Z,922.03
2023-03-08T04:51:30.913Z,922.01
2023-03-08T04:52:31.530Z,921.94
2023-03-08T04:53:32.157Z,921.9
2023-03-08T04:54:32.382Z,921.87
2023-03-08T04:55:32.577Z,921.82
2023-03-08T04:56:33.153Z,921.75
2023-03-08T04:57:34.074Z,921.76
2023-03-08T04:58:34.599Z,921.72
2023-03-08T04:59:35.530Z,921.71
2023-03-08T05:00:36.177Z,921.72
2023-03-08T05:01:37.105Z,921.67
2023-03-08T05:02:37.682Z,921.65
2023-03-08T05:03:38.379Z,921.62
2023-03-08T05:04:39.360Z,921.58
2023-03-08T05:05:39.781Z,921.61
2023-03-08T05:06:40.514Z,921.54
2023-03-08T05:07:41.481Z,921.57
2023-03-08T05:08:42.116Z,921.53
2023-03-08T05:09:43.165Z,921.52
2023-03-08T05:10:44.108Z,921.51
2023-03-08T05:11:44.690Z,921.5
2023-03-08T05:12:44.885Z,921.48
2023-03-08T05:13:45.832Z,921.4
2023-03-08T05:14:46.761Z,921.4
2023-03-08T05:15:47.690Z,921.33
2023-03-08T05:16:48.311Z,921.35
2023-03-08T05:17:48.887Z,921.31
2023-03-08T05:18:49.812Z,921.32
2023-03-08T05:19:50.036Z,921.23
2023-03-08T05:20:50.670Z,921.2
2023-03-08T05:21:51.586Z,921.16
2023-03-08T05:22:58.773Z,921.15
2023-03-08T05:23:53.213Z,921.16
2023-03-08T05:24:53.667Z,921.17
2023-03-08T05:25:54.179Z,921.19
2023-03-08T05:26:54.700Z,921.18
2023-03-08T05:27:55.315Z,921.21
2023-03-08T05:28:55.940Z,921.23
2023-03-08T05:29:56.137Z,921.24
2023-03-08T05:30:56.386Z,921.23
2023-03-08T05:31:56.746Z,921.24
2023-03-08T05:32:57.352Z,921.25
2023-03-08T05:33:58.283Z,921.26
2023-03-08T05:34:58.488Z,921.29
2023-03-08T05:35:59.033Z,921.3
2023-03-08T05:36:59.753Z,921.31
2023-03-08T05:37:59.973Z,921.29
2023-03-08T05:39:00.175Z,921.23
2023-03-08T05:40:00.409Z,921.18
2023-03-08T05:41:01.333Z,921.14
2023-03-08T05:42:02.343Z,921.14
2023-03-08T05:43:02.550Z,921.19
2023-03-08T05:44:02.812Z,921.17
2023-03-08T05:45:03.789Z,921.16
2023-03-08T05:46:04.131Z,921.16
2023-03-08T05:47:04.727Z,921.14
2023-03-08T05:48:05.358Z,921.2
2023-03-08T05:49:05.573Z,921.22
2023-03-08T05:50:06.215Z,921.22
2023-03-08T05:51:06.449Z,921.23
2023-03-08T05:52:07.478Z,921.21
2023-03-08T05:53:08.414Z,921.23
2023-03-08T05:54:08.602Z,921.18
2023-03-08T05:55:08.824Z,921.16
2023-03-08T05:56:09.480Z,921.19
2023-03-08T05:57:10.101Z,921.18
2023-03-08T05:58:10.735Z,921.2
2023-03-08T05:59:11.726Z,921.21
2023-03-08T06:00:12.243Z,921.17
2023-03-08T06:01:13.211Z,921.14
2023-03-08T06:02:14.177Z,921.14
2023-03-08T06:03:14.364Z,921.15
2023-03-08T06:04:14.945Z,921.15
2023-03-08T06:05:15.869Z,921.13
2023-03-08T06:06:16.832Z,921.06
2023-03-08T06:07:17.357Z,921.12
2023-03-08T06:08:18.297Z,921.06
2023-03-08T06:09:18.940Z,921.07
2023-03-08T06:10:19.858Z,921.12
2023-03-08T06:11:20.362Z,921.06
2023-03-08T06:12:21.351Z,921.12
2023-03-08T06:13:21.566Z,921.11
2023-03-08T06:14:21.914Z,921.1
2023-03-08T06:15:22.558Z,921.08
2023-03-08T06:16:22.853Z,921.06
2023-03-08T06:17:23.844Z,921.04
2023-03-08T06:18:24.786Z,921.04
2023-03-08T06:19:25.138Z,921.02
2023-03-08T06:20:26.053Z,921
2023-03-08T06:21:26.984Z,921.02
2023-03-08T06:22:27.893Z,921
2023-03-08T06:23:28.845Z,920.99
2023-03-08T06:24:29.312Z,921.02
2023-03-08T06:25:30.252Z,921
2023-03-08T06:26:30.885Z,921
2023-03-08T06:27:31.865Z,920.95
2023-03-08T06:28:32.785Z,920.94
2023-03-08T06:29:33.478Z,920.93
2023-03-08T06:30:34.445Z,920.91
2023-03-08T06:31:35.162Z,920.91
2023-03-08T06:32:36.211Z,920.89
2023-03-08T06:33:37.106Z,920.9
2023-03-08T06:34:37.731Z,920.9
2023-03-08T06:35:38.403Z,920.89
2023-03-08T06:36:39.029Z,920.85
2023-03-08T06:37:40.119Z,920.87
2023-03-08T06:38:40.625Z,920.88
2023-03-08T06:39:40.837Z,920.87
2023-03-08T06:40:41.509Z,920.87
2023-03-08T06:41:42.093Z,920.84
2023-03-08T06:42:42.441Z,920.86
2023-03-08T06:43:43.430Z,920.85
2023-03-08T06:44:44.024Z,920.87
2023-03-08T06:45:44.293Z,920.9
2023-03-08T06:46:44.521Z,920.94
2023-03-08T06:47:44.997Z,920.91
2023-03-08T06:48:45.924Z,920.98
2023-03-08T06:49:46.997Z,920.97
2023-03-08T06:50:46.282Z,920.94
2023-03-08T06:51:47.183Z,921.02
2023-03-08T06:52:47.679Z,920.98
2023-03-08T06:53:47.972Z,921.03
2023-03-08T06:54:48.936Z,921.06
2023-03-08T06:55:49.898Z,921.04
2023-03-08T06:56:50.141Z,921.07
2023-03-08T06:57:50.541Z,921.07
2023-03-08T06:58:51.507Z,921.09
2023-03-08T06:59:51.757Z,921.13
2023-03-08T07:00:52.705Z,921.15
2023-03-08T07:01:53.705Z,921.14
2023-03-08T07:02:54.201Z,921.19
2023-03-08T07:03:54.537Z,921.12
2023-03-08T07:04:54.843Z,921.09
2023-03-08T07:05:55.800Z,921.04
2023-03-08T07:06:56.779Z,921.03
2023-03-08T07:07:57.426Z,921.11
2023-03-08T07:08:58.077Z,921.11
2023-03-08T07:09:58.723Z,921.11
2023-03-08T07:10:58.932Z,921.07
2023-03-08T07:11:59.614Z,921.08
2023-03-08T07:12:59.807Z,921.14
2023-03-08T07:14:00.731Z,921.26
2023-03-08T07:15:01.712Z,921.2
2023-03-08T07:16:02.734Z,921.19
2023-03-08T07:17:03.323Z,921.16
2023-03-08T07:18:04.388Z,921.13
2023-03-08T07:19:05.242Z,921.14
2023-03-08T07:20:05.919Z,921.05
2023-03-08T07:21:06.166Z,921.05
2023-03-08T07:22:06.656Z,921.05
2023-03-08T07:23:07.298Z,921.06
2023-03-08T07:24:08.409Z,921.09
2023-03-08T07:25:09.056Z,921.03
2023-03-08T07:26:09.275Z,921.03
2023-03-08T07:27:09.814Z,921
2023-03-08T07:28:10.375Z,920.95
2023-03-08T07:29:10.591Z,920.95
2023-03-08T07:30:10.864Z,920.93
2023-03-08T07:31:11.824Z,920.94
2023-03-08T07:32:12.198Z,920.88
2023-03-08T07:33:12.735Z,920.89
2023-03-08T07:34:12.976Z,920.94
2023-03-08T07:35:13.946Z,920.98
2023-03-08T07:36:14.929Z,920.99
2023-03-08T07:37:15.042Z,921.01
2023-03-08T07:38:15.957Z,921.03
2023-03-08T07:39:16.954Z,921.03
2023-03-08T07:40:17.968Z,921.03
2023-03-08T07:41:18.179Z,920.99
2023-03-08T07:42:19.176Z,920.93
2023-03-08T07:43:19.436Z,920.91
2023-03-08T07:44:20.376Z,920.91
2023-03-08T07:45:20.954Z,921.01
2023-03-08T07:46:21.224Z,921.02
2023-03-08T07:47:21.609Z,920.97
2023-03-08T07:48:22.639Z,920.86
2023-03-08T07:49:22.856Z,920.9
2023-03-08T07:50:23.223Z,920.98
2023-03-08T07:51:24.052Z,920.97
2023-03-08T07:52:24.320Z,920.97
2023-03-08T07:53:25.255Z,920.96
2023-03-08T07:54:25.517Z,920.93
2023-03-08T07:55:25.819Z,920.9
2023-03-08T07:56:26.489Z,920.75
2023-03-08T07:57:27.411Z,920.74
2023-03-08T07:58:28.110Z,920.72
2023-03-08T07:59:28.625Z,920.73
2023-03-08T08:00:29.045Z,920.72
2023-03-08T08:01:29.269Z,920.73
2023-03-08T08:02:30.219Z,920.8
2023-03-08T08:03:30.558Z,920.78
2023-03-08T08:04:30.923Z,920.83
2023-03-08T08:05:31.979Z,920.82
2023-03-08T08:06:32.012Z,920.83
2023-03-08T08:07:32.949Z,920.78
2023-03-08T08:08:33.738Z,920.75
2023-03-08T08:09:34.062Z,920.78
2023-03-08T08:10:34.607Z,920.73
2023-03-08T08:11:34.935Z,920.7
2023-03-08T08:12:35.562Z,920.69
2023-03-08T08:13:36.149Z,920.67
2023-03-08T08:14:36.406Z,920.7
2023-03-08T08:15:37.086Z,920.67
2023-03-08T08:16:37.754Z,920.7
2023-03-08T08:17:38.614Z,920.75
2023-03-08T08:18:39.066Z,920.73
2023-03-08T08:19:39.828Z,920.74
2023-03-08T08:20:40.779Z,920.76
2023-03-08T08:21:41.730Z,920.7
2023-03-08T08:22:41.935Z,920.58
2023-03-08T08:23:42.176Z,920.62
2023-03-08T08:24:42.747Z,920.65
2023-03-08T08:25:42.988Z,920.56
2023-03-08T08:26:43.261Z,920.49
2023-03-08T08:27:43.502Z,920.53
2023-03-08T08:28:43.873Z,920.56
2023-03-08T08:29:44.825Z,920.4
2023-03-08T08:30:45.866Z,920.25
2023-03-08T08:31:46.273Z,920.22
2023-03-08T08:32:46.787Z,920.3
2023-03-08T08:33:47.058Z,920.29
2023-03-08T08:34:47.318Z,920.26
2023-03-08T08:35:48.169Z,920.2
2023-03-08T08:36:48.283Z,920.25
2023-03-08T08:37:49.210Z,920.28
2023-03-08T08:38:49.586Z,920.24
2023-03-08T08:39:49.862Z,920.29
2023-03-08T08:40:50.660Z,920.31
2023-03-08T08:41:51.605Z,920.28
2023-03-08T08:42:51.900Z,920.14
2023-03-08T08:43:52.156Z,919.96
2023-03-08T08:44:53.154Z,919.9
2023-03-08T08:45:53.731Z,919.93
2023-03-08T08:46:54.339Z,919.97
2023-03-08T08:47:55.289Z,919.95
2023-03-08T08:48:56.111Z,919.86
2023-03-08T08:49:56.516Z,919.9
2023-03-08T08:50:56.774Z,919.93
2023-03-08T08:51:57.732Z,919.95
2023-03-08T08:52:57.995Z,919.9
2023-03-08T08:53:58.510Z,919.86
2023-03-08T08:54:59.331Z,919.8
2023-03-08T08:55:59.605Z,919.8
2023-03-08T08:56:59.819Z,919.78
2023-03-08T08:58:00.461Z,919.8
2023-03-08T08:59:01.142Z,919.79
2023-03-08T09:00:01.723Z,919.78
2023-03-08T09:01:02.567Z,919.68
2023-03-08T09:02:03.606Z,919.65
2023-03-08T09:03:04.315Z,919.6
2023-03-08T09:04:05.124Z,919.54
2023-03-08T09:05:05.961Z,919.54
2023-03-08T09:06:06.439Z,919.49
2023-03-08T09:07:07.144Z,919.46
2023-03-08T09:08:07.439Z,919.4
2023-03-08T09:09:07.960Z,919.31
2023-03-08T09:10:08.871Z,919.27
2023-03-08T09:11:09.684Z,919.28
2023-03-08T09:12:10.603Z,919.28
2023-03-08T09:13:11.162Z,919.29
2023-03-08T09:14:12.030Z,919.35
2023-03-08T09:15:12.112Z,919.28
2023-03-08T09:16:12.900Z,919.26
2023-03-08T09:17:13.468Z,919.21
2023-03-08T09:18:13.683Z,919.24
2023-03-08T09:19:14.354Z,919.23
2023-03-08T09:20:14.698Z,919.2
2023-03-08T09:21:14.805Z,919.18
2023-03-08T09:22:15.043Z,919.19
2023-03-08T09:23:15.643Z,919.18
2023-03-08T09:24:15.982Z,919.16
2023-03-08T09:25:16.677Z,919.21
2023-03-08T09:26:16.912Z,919.3
2023-03-08T09:27:17.574Z,919.35
2023-03-08T09:28:17.865Z,919.4
2023-03-08T09:29:18.379Z,919.44
2023-03-08T09:30:18.661Z,919.45
2023-03-08T09:31:19.355Z,919.41
2023-03-08T09:32:20.239Z,919.4
2023-03-08T09:33:20.473Z,919.34
2023-03-08T09:34:21.408Z,919.34
2023-03-08T09:35:21.628Z,919.26
2023-03-08T09:36:22.139Z,919.23
2023-03-08T09:37:22.536Z,919.14
2023-03-08T09:38:22.953Z,919.06
2023-03-08T09:39:23.940Z,918.94
2023-03-08T09:40:24.216Z,918.91
2023-03-08T09:41:25.182Z,918.93
2023-03-08T09:42:25.415Z,918.92
2023-03-08T09:43:25.661Z,918.95
2023-03-08T09:44:26.254Z,918.99
2023-03-08T09:45:26.928Z,919.08
2023-03-08T09:46:27.453Z,919.1
2023-03-08T09:47:28.192Z,919.14
2023-03-08T09:48:28.319Z,919.12
2023-03-08T09:49:28.652Z,919.08
2023-03-08T09:50:28.897Z,919.08
2023-03-08T09:51:29.416Z,919.12
2023-03-08T09:52:30.094Z,919.13
2023-03-08T09:53:30.321Z,919.15
2023-03-08T09:54:30.671Z,919.18
2023-03-08T09:55:30.890Z,919.21
2023-03-08T09:56:31.520Z,919.21
2023-03-08T09:57:31.871Z,919.23
2023-03-08T09:58:31.931Z,919.21
2023-03-08T09:59:32.675Z,919.2
2023-03-08T10:00:33.668Z,919.17
2023-03-08T10:01:34.266Z,919.17
2023-03-08T10:02:34.475Z,919.19
2023-03-08T10:03:36.375Z,919.26
2023-03-08T10:04:35.202Z,919.31
2023-03-08T10:05:35.567Z,919.3
2023-03-08T10:06:36.103Z,919.25
2023-03-08T10:07:36.374Z,919.23
2023-03-08T10:08:37.333Z,919.26
2023-03-08T10:09:37.980Z,919.25
2023-03-08T10:10:38.303Z,919.35
2023-03-08T10:11:38.855Z,919.44
2023-03-08T10:12:39.805Z,919.41
2023-03-08T10:13:40.057Z,919.3
2023-03-08T10:14:40.139Z,919.25
2023-03-08T10:15:41.126Z,919.2
2023-03-08T10:16:41.773Z,919.21
2023-03-08T10:17:42.167Z,919.29
2023-03-08T10:18:42.713Z,919.38
2023-03-08T10:19:43.168Z,919.33
2023-03-08T10:20:43.754Z,919.3
2023-03-08T10:21:44.293Z,919.27
2023-03-08T10:22:44.811Z,919.27
2023-03-08T10:23:45.469Z,919.25
2023-03-08T10:24:45.694Z,919.26
2023-03-08T10:25:46.678Z,919.24
2023-03-08T10:26:46.965Z,919.26
2023-03-08T10:27:47.268Z,919.25
2023-03-08T10:28:47.501Z,919.28
2023-03-08T10:29:47.878Z,919.31
2023-03-08T10:30:48.189Z,919.31
2023-03-08T10:31:48.713Z,919.25
2023-03-08T10:32:49.883Z,919.22
2023-03-08T10:33:50.804Z,919.25
2023-03-08T10:34:51.023Z,919.15
2023-03-08T10:35:51.989Z,919.2
2023-03-08T10:36:52.288Z,919.3
2023-03-08T10:37:52.587Z,919.27
2023-03-08T10:38:52.840Z,919.25
2023-03-08T10:39:53.475Z,919.24
2023-03-08T10:40:54.213Z,919.26
2023-03-08T10:41:54.565Z,919.37
2023-03-08T10:42:55.639Z,919.3
2023-03-08T10:43:56.271Z,919.22
2023-03-08T10:44:56.581Z,919.32
2023-03-08T10:45:57.541Z,919.29
2023-03-08T10:46:58.413Z,919.22
2023-03-08T10:47:59.178Z,919.19
2023-03-08T10:48:59.406Z,919.2
2023-03-08T10:49:59.726Z,919.19
2023-03-08T10:51:00.300Z,919.31
2023-03-08T10:52:00.980Z,919.32
2023-03-08T10:53:01.365Z,919.25
2023-03-08T10:54:01.897Z,919.13
2023-03-08T10:55:02.831Z,919.14
2023-03-08T10:56:03.928Z,919.17
2023-03-08T10:57:04.695Z,919.17
2023-03-08T10:58:05.635Z,919.22
2023-03-08T10:59:06.191Z,919.15
2023-03-08T11:00:06.913Z,919
2023-03-08T11:01:07.011Z,918.98
2023-03-08T11:02:07.276Z,919.02
2023-03-08T11:03:07.554Z,919.03
2023-03-08T11:04:07.799Z,919.05
2023-03-08T11:05:07.897Z,919.05
2023-03-08T11:06:08.123Z,919.13
2023-03-08T11:07:08.339Z,919.21
2023-03-08T11:08:08.558Z,919.17
2023-03-08T11:09:09.558Z,919.17
2023-03-08T11:10:10.596Z,919.17
2023-03-08T11:11:11.324Z,919.2
2023-03-08T11:12:12.666Z,919.23
2023-03-08T11:13:12.195Z,919.19
2023-03-08T11:14:12.486Z,919.11
2023-03-08T11:15:13.439Z,919.04
2023-03-08T11:16:14.490Z,919.09
2023-03-08T11:17:15.114Z,919.06
2023-03-08T11:18:15.333Z,919.07
2023-03-08T11:19:16.373Z,919
2023-03-08T11:20:16.503Z,918.99
2023-03-08T11:21:17.452Z,919.01
2023-03-08T11:22:18.405Z,919.11
2023-03-08T11:23:18.948Z,919.16
2023-03-08T11:24:19.211Z,919.17
2023-03-08T11:25:19.611Z,919.17
2023-03-08T11:26:19.910Z,919.18
2023-03-08T11:27:20.278Z,919.18
2023-03-08T11:28:20.618Z,919.18
2023-03-08T11:29:21.119Z,919.12
2023-03-08T11:30:21.299Z,919.15
2023-03-08T11:31:21.620Z,919.15
2023-03-08T11:32:22.757Z,919.14
2023-03-08T11:33:23.394Z,919.06
2023-03-08T11:34:23.885Z,919.05
2023-03-08T11:35:24.254Z,919.11
2023-03-08T11:36:24.358Z,919.16
2023-03-08T11:37:25.039Z,919.02
2023-03-08T11:38:25.278Z,919.1
2023-03-08T11:39:25.825Z,919.14
2023-03-08T11:40:26.270Z,919.22
2023-03-08T11:41:27.225Z,919.29
2023-03-08T11:42:27.739Z,919.27
2023-03-08T11:43:28.017Z,919.15
2023-03-08T11:44:28.959Z,919.12
2023-03-08T11:45:29.316Z,919.05
2023-03-08T11:46:30.328Z,919.09
2023-03-08T11:47:30.511Z,919.09
2023-03-08T11:48:30.801Z,919.06
2023-03-08T11:49:30.908Z,919.1
2023-03-08T11:50:31.660Z,919.11
2023-03-08T11:51:32.339Z,919.12
2023-03-08T11:52:32.996Z,919.19
2023-03-08T11:53:33.231Z,919.18
2023-03-08T11:54:34.217Z,919.14
2023-03-08T11:55:35.203Z,919.19
2023-03-08T11:56:36.197Z,919.2
2023-03-08T11:57:36.588Z,919.2
2023-03-08T11:58:37.094Z,919.16
2023-03-08T11:59:37.272Z,919.09
2023-03-08T12:00:37.430Z,919.25
2023-03-08T12:01:38.360Z,919.26
2023-03-08T12:02:38.739Z,919.16
2023-03-08T12:03:39.161Z,919.15
2023-03-08T12:04:40.161Z,919.13
2023-03-08T12:05:40.160Z,919.06
2023-03-08T12:06:40.366Z,919.09
2023-03-08T12:07:41.130Z,919.16
2023-03-08T12:08:41.860Z,919.2
2023-03-08T12:09:42.138Z,919.14
2023-03-08T12:10:42.512Z,919.14
2023-03-08T12:11:44.088Z,919.16
2023-03-08T12:12:43.837Z,919.21
2023-03-08T12:13:44.332Z,919.24
2023-03-08T12:14:44.850Z,919.22
2023-03-08T12:15:45.210Z,919.2
2023-03-08T12:16:45.726Z,919.3
2023-03-08T12:17:46.650Z,919.27
2023-03-08T12:18:46.871Z,919.23
2023-03-08T12:19:47.086Z,919.21
2023-03-08T12:20:47.451Z,919.28
2023-03-08T12:21:48.117Z,919.22
2023-03-08T12:22:48.415Z,919.3
2023-03-08T12:23:49.109Z,919.25
2023-03-08T12:24:49.804Z,919.09
2023-03-08T12:25:50.375Z,919.16
2023-03-08T12:26:51.466Z,919.19
2023-03-08T12:27:51.903Z,919.22
2023-03-08T12:28:52.824Z,919.32
2023-03-08T12:29:53.876Z,919.31
2023-03-08T12:30:54.299Z,919.29
2023-03-08T12:31:54.635Z,919.26
2023-03-08T12:32:55.363Z,919.28
2023-03-08T12:33:55.575Z,919.3
2023-03-08T12:34:56.561Z,919.27
2023-03-08T12:35:57.636Z,919.28
2023-03-08T12:36:58.299Z,919.33
2023-03-08T12:37:58.879Z,919.28
2023-03-08T12:38:59.640Z,919.29